• Join FlightAware (Why Join?)
  • Login
  • US Flag 
01:30PM EDT


 

Airport Tracker/Info


-or-


 

Live Flight TrackerFlight Track Log ✈ ASA128 ✈ 08-Jun-2013 ✈ PAFA / FAI - KSEA

Flight Track Log - Related Links

Times and Time Zones

All times are in EDT time to prevent confusion due to time zone crossing. See the ASA128 flight status page for this flight to view local times or setup timezone preferences in your user account.

Time Position Orientation Groundspeed Altitude Reporting Facility
EDT Latitude Longitude Course Direction KTS MPH feet Rate Location/Type
05:47AM 64.7333 -147.7500 123° Southeast 260 299 4,300  Level Anchorage Center
05:48AM 64.6833 -147.6167 131° Southeast 260 299 6,900 2,520 Climbing Anchorage Center
05:49AM 64.6500 -147.4500 115° Southeast 280 322 9,400 2,040 Climbing Anchorage Center
05:50AM 64.6000 -147.3000 128° Southeast 320 368 11,000 1,680 Climbing Anchorage Center
05:51AM 64.3744 -146.4742 123° Southeast  Level FlightAware Approximate
05:51AM 64.5500 -147.0833 118° Southeast 370 426 12,900  Level Anchorage Center
05:52AM 64.3067 -146.2384 123° Southeast  Level FlightAware Approximate
05:52AM 64.4833 -146.8833 128° Southeast 380 437 15,300  Level Anchorage Center
05:53AM 64.4333 -146.6667 118° Southeast 400 460 17,800 2,280 Climbing Anchorage Center
05:54AM 64.3667 -146.4500 125° Southeast 410 472 20,000 2,100 Climbing Anchorage Center
05:55AM 64.3000 -146.2167 123° Southeast 420 483 22,100 1,980 Climbing Anchorage Center
05:56AM 64.2333 -146.0000 125° Southeast 430 495 24,000 1,740 Climbing Anchorage Center
05:57AM 64.1667 -145.7500 121° Southeast 440 506 25,700 1,440 Climbing Anchorage Center
05:58AM 64.1000 -145.5167 123° Southeast 450 518 27,000 1,320 Climbing Anchorage Center
05:59AM 64.0167 -145.2667 127° Southeast 460 529 28,400 1,380 Climbing Anchorage Center
06:00AM 63.9500 -145.0333 123° Southeast 460 529 29,900 1,440 Climbing Anchorage Center
06:01AM 63.8833 -144.7667 120° Southeast 460 529 31,300 1,380 Climbing Anchorage Center
06:02AM 63.8167 -144.5833 129° Southeast 460 529 32,700 840 Climbing Anchorage Center
06:03AM 63.7333 -144.3500 129° Southeast 450 518 33,000 120 Climbing Anchorage Center
06:04AM 63.6667 -144.1167 123° Southeast 450 518 33,000  Level Anchorage Center
06:05AM 63.6000 -143.8833 123° Southeast 460 529 33,000  Level Anchorage Center
06:06AM 63.5167 -143.6333 127° Southeast 460 529 33,000  Level Anchorage Center
06:07AM 63.4500 -143.4167 124° Southeast 450 518 33,000  Level Anchorage Center
06:08AM 63.3667 -143.2000 131° Southeast 450 518 33,000  Level Anchorage Center
06:09AM 63.3000 -142.9667 122° Southeast 440 506 33,000  Level Anchorage Center
06:11AM 63.1720 -142.5849 127° Southeast  Level FlightAware Approximate
06:18AM 62.5849 -141.2242 138° Southeast  Level FlightAware Approximate
06:19AM 62.4927 -141.0492 139° Southeast  Level FlightAware Approximate
06:20AM 62.4004 -140.8752 139° Southeast  Level FlightAware Approximate
06:21AM 62.3078 -140.7024 139° Southeast  Level FlightAware Approximate
06:22AM 62.2164 -140.5331 139° Southeast  Level FlightAware Approximate
06:23AM 62.1244 -140.3641 139° Southeast  Level FlightAware Approximate
06:24AM 62.0322 -140.1962 139° Southeast  Level FlightAware Approximate
06:25AM 61.9398 -140.0293 140° Southeast  Level FlightAware Approximate
06:26AM 61.8472 -139.8634 140° Southeast  Level FlightAware Approximate
06:27AM 61.7545 -139.6985 140° Southeast  Level FlightAware Approximate
06:28AM 61.6615 -139.5346 140° Southeast  Level FlightAware Approximate
06:28AM 61.5167 -139.3000 148° Southeast 430 495 33,000  Level Anchorage Center
06:29AM 61.5683 -139.3717 140° Southeast  Level FlightAware Approximate
06:29AM 61.4167 -139.1333 141° Southeast 450 518 33,000  Level Anchorage Center
06:30AM 61.4749 -139.2098 140° Southeast  Level FlightAware Approximate
06:30AM 61.3333 -138.9667 136° Southeast 440 506 33,000  Level Anchorage Center
06:31AM 61.3814 -139.0488 140° Southeast  Level FlightAware Approximate
06:31AM 61.2167 -138.8333 151° Southeast 450 518 33,000  Level Anchorage Center
06:32AM 61.2833 -138.9013 148° Southeast  Level FlightAware Approximate
06:32AM 61.1167 -138.7000 147° Southeast 450 518 33,000  Level Anchorage Center
06:33AM 61.1806 -138.7678 148° Southeast  Level FlightAware Approximate
06:33AM 61.0167 -138.5667 147° Southeast 440 506 33,000  Level Anchorage Center
06:34AM 61.0778 -138.6351 148° Southeast  Level FlightAware Approximate
06:34AM 60.9000 -138.4167 148° Southeast 450 518 33,000  Level Anchorage Center
06:35AM 60.8000 -138.2833 147° Southeast 440 506 33,000  Level Anchorage Center
06:36AM 60.7000 -138.1667 150° Southeast 440 506 33,000  Level Anchorage Center
06:37AM 60.6000 -138.0333 147° Southeast 440 506 33,000  Level Anchorage Center
06:38AM 60.4833 -137.9000 151° Southeast 440 506 33,000  Level Anchorage Center
06:39AM 60.3833 -137.7667 147° Southeast 450 518 33,000  Level Anchorage Center
06:40AM 60.2667 -137.6333 150° Southeast 450 518 33,000  Level Anchorage Center
06:41AM 60.1667 -137.5000 146° Southeast 440 506 33,000  Level Anchorage Center
06:42AM 60.0667 -137.3833 150° Southeast 450 518 33,000  Level Anchorage Center
06:43AM 59.9500 -137.2500 150° Southeast 440 506 33,000  Level Anchorage Center
06:44AM 59.8500 -137.1333 150° Southeast 440 506 33,000  Level Anchorage Center
06:45AM 59.7500 -137.0000 146° Southeast 440 506 33,000  Level Anchorage Center
06:46AM 59.6333 -136.8667 150° Southeast 450 518 33,000  Level Anchorage Center
06:47AM 59.5333 -136.7500 149° Southeast 450 518 33,000  Level Anchorage Center
06:48AM 59.4167 -136.6167 150° Southeast 450 518 33,000  Level Anchorage Center
06:49AM 59.3167 -136.5000 149° Southeast 450 518 33,000  Level Anchorage Center
06:51AM 59.2000 -136.3667 150° Southeast 450 518 33,000 60 Level Anchorage Center
06:52AM 59.1000 -136.2500 149° Southeast 450 518 33,200 540 Climbing Anchorage Center
06:53AM 58.9833 -136.1167 149° Southeast 460 529 34,200 840 Climbing Anchorage Center
06:54AM 58.8667 -136.0000 153° Southeast 460 529 35,000 360 Climbing Anchorage Center
06:55AM 58.7500 -135.8833 153° Southeast 460 529 35,000  Level Anchorage Center
06:56AM 58.6500 -135.7500 145° Southeast 460 529 35,000  Level Anchorage Center
06:57AM 58.5333 -135.6333 152° Southeast 460 529 35,000  Level Anchorage Center
06:58AM 58.4333 -135.5167 149° Southeast 450 518 35,000  Level Anchorage Center
06:59AM 58.3167 -135.4000 152° Southeast 450 518 35,000  Level Anchorage Center
07:00AM 58.2000 -135.2833 152° Southeast 470 541 35,000  Level Anchorage Center
07:01AM 58.1000 -135.1333 142° Southeast 460 529 35,000  Level Anchorage Center
07:02AM 58.0000 -134.9667 139° Southeast 460 529 35,000  Level Anchorage Center
07:03AM 57.9000 -134.8000 138° Southeast 470 541 35,000  Level Anchorage Center
07:04AM 57.8167 -134.6500 136° Southeast 460 529 35,000  Level Anchorage Center
07:05AM 57.7167 -134.5000 141° Southeast 460 529 35,000  Level Anchorage Center
07:06AM 57.6167 -134.3333 138° Southeast 460 529 35,000  Level Anchorage Center
07:07AM 57.5167 -134.1833 141° Southeast 460 529 35,000  Level Anchorage Center
07:08AM 57.4167 -134.0167 138° Southeast 470 541 35,000  Level Anchorage Center
07:09AM 57.3167 -133.8667 141° Southeast 460 529 35,000  Level Anchorage Center
07:10AM 57.2167 -133.7167 141° Southeast 460 529 35,000  Level Anchorage Center
07:11AM 57.1333 -133.5667 136° Southeast 460 529 35,000  Level Anchorage Center
07:12AM 57.0333 -133.4167 141° Southeast 470 541 35,000  Level Anchorage Center
07:13AM 56.9333 -133.2667 141° Southeast 460 529 35,000  Level Anchorage Center
07:14AM 56.8333 -133.1000 138° Southeast 460 529 35,000  Level Anchorage Center
07:15AM 56.7333 -132.9500 141° Southeast 460 529 35,000  Level Anchorage Center
07:16AM 56.6333 -132.8000 140° Southeast 470 541 35,000  Level Anchorage Center
07:17AM 56.5333 -132.6500 140° Southeast 470 541 35,000  Level Anchorage Center
07:18AM 56.4167 -132.5000 145° Southeast 470 541 35,000  Level Anchorage Center
07:19AM 56.3333 -132.3500 135° Southeast 460 529 35,000  Level Anchorage Center
07:20AM 56.2333 -132.2000 140° Southeast 470 541 35,000  Level Anchorage Center
07:21AM 56.1333 -132.0667 143° Southeast 470 541 35,000  Level Anchorage Center
07:22AM 56.0167 -131.9167 144° Southeast 470 541 35,000  Level Anchorage Center
07:23AM 55.9167 -131.7667 140° Southeast 470 541 35,000  Level Anchorage Center
07:24AM 55.8167 -131.6167 140° Southeast 480 552 35,000  Level Anchorage Center
07:25AM 55.7167 -131.4833 143° Southeast 480 552 35,000  Level Anchorage Center
07:26AM 55.6167 -131.3333 140° Southeast 470 541 35,000  Level Anchorage Center
07:27AM 55.5000 -131.1667 141° Southeast 480 552 35,000  Level Anchorage Center
07:28AM 55.4000 -131.0333 143° Southeast 480 552 35,000  Level Anchorage Center
07:29AM 55.2833 -130.8833 144° Southeast 480 552 35,000  Level Anchorage Center
07:30AM 55.1833 -130.7333 139° Southeast 480 552 35,000  Level Anchorage Center
07:31AM 55.0667 -130.5833 144° Southeast 480 552 35,000  Level Anchorage Center
07:32AM 54.9667 -130.4500 143° Southeast 480 552 35,000  Level Anchorage Center
07:33AM 54.8667 -130.3000 139° Southeast 480 552 35,000  Level Anchorage Center
07:33AM 54.8167 -130.2833 169° South 480 552 35,000  Level Vancouver Center
07:34AM 54.7167 -130.1500 142° Southeast 480 552 35,000  Level Vancouver Center
07:35AM 54.6000 -130.0167 146° Southeast 470 541 35,000  Level Vancouver Center
07:36AM 54.5000 -129.8833 142° Southeast 480 552 35,000  Level Vancouver Center
07:37AM 54.4000 -129.7333 139° Southeast 490 564 35,000  Level Vancouver Center
07:38AM 54.3000 -129.6000 142° Southeast 480 552 35,000  Level Vancouver Center
07:39AM 54.1833 -129.4667 146° Southeast 470 541 35,000  Level Vancouver Center
07:40AM 54.0667 -129.3167 143° Southeast 480 552 35,000  Level Vancouver Center
07:41AM 53.9667 -129.1833 142° Southeast 490 564 35,000  Level Vancouver Center
07:42AM 53.8500 -129.0667 149° Southeast 480 552 35,000  Level Vancouver Center
07:43AM 53.7500 -128.9333 142° Southeast 480 552 35,000  Level Vancouver Center
07:44AM 53.6500 -128.7833 138° Southeast 480 552 35,000  Level Vancouver Center
07:45AM 53.5333 -128.6500 146° Southeast 480 552 35,000  Level Vancouver Center
07:46AM 53.4333 -128.5333 145° Southeast 480 552 35,000  Level Vancouver Center
07:47AM 53.3167 -128.3833 142° Southeast 490 564 35,000  Level Vancouver Center
07:48AM 53.2167 -128.2667 145° Southeast 480 552 35,000  Level Vancouver Center
07:49AM 53.1000 -128.1333 146° Southeast 500 575 35,000  Level Vancouver Center
07:50AM 52.9833 -127.9833 142° Southeast 490 564 35,000  Level Vancouver Center
07:51AM 52.8833 -127.8667 145° Southeast 490 564 35,000  Level Vancouver Center
07:52AM 52.7667 -127.7500 149° Southeast 490 564 35,000  Level Vancouver Center
07:53AM 52.6500 -127.6000 142° Southeast 490 564 35,000  Level Vancouver Center
07:54AM 52.5333 -127.4833 149° Southeast 500 575 35,000  Level Vancouver Center
07:55AM 52.4167 -127.3500 145° Southeast 500 575 35,000  Level Vancouver Center
07:56AM 52.3167 -127.2167 141° Southeast 500 575 35,000  Level Vancouver Center
07:57AM 52.2000 -127.1000 148° Southeast 500 575 35,000  Level Vancouver Center
07:58AM 52.0833 -126.9500 142° Southeast 500 575 35,000  Level Vancouver Center
07:59AM 51.9667 -126.8333 148° Southeast 510 587 35,000  Level Vancouver Center
08:00AM 51.8333 -126.6833 145° Southeast 510 587 35,000  Level Vancouver Center
08:01AM 51.7333 -126.5667 144° Southeast 510 587 35,000  Level Vancouver Center
08:02AM 51.6333 -126.4333 140° Southeast 500 575 35,000  Level Vancouver Center
08:03AM 51.5000 -126.3167 151° Southeast 500 575 35,000  Level Vancouver Center
08:04AM 51.3833 -126.1833 144° Southeast 500 575 35,000  Level Vancouver Center
08:05AM 51.2667 -126.0667 148° Southeast 510 587 35,000  Level Vancouver Center
08:06AM 51.1500 -125.9333 144° Southeast 500 575 35,000  Level Vancouver Center
08:07AM 51.0333 -125.8167 148° Southeast 500 575 35,000  Level Vancouver Center
08:08AM 50.9333 -125.6833 140° Southeast 500 575 35,000  Level Vancouver Center
08:09AM 50.8167 -125.5667 148° Southeast 510 587 35,000  Level Vancouver Center
08:10AM 50.6833 -125.4333 148° Southeast 500 575 35,000  Level Vancouver Center
08:11AM 50.5667 -125.3167 148° Southeast 510 587 35,000  Level Vancouver Center
08:12AM 50.4500 -125.1833 144° Southeast 510 587 35,000  Level Vancouver Center
08:13AM 50.3333 -125.0833 151° Southeast 510 587 35,000  Level Vancouver Center
08:14AM 50.2167 -124.9500 144° Southeast 510 587 35,000  Level Vancouver Center
08:15AM 50.0833 -124.8333 151° Southeast 510 587 35,000  Level Vancouver Center
08:16AM 49.9667 -124.7000 144° Southeast 510 587 35,000  Level Vancouver Center
08:17AM 49.8500 -124.6000 151° Southeast 510 587 35,000  Level Vancouver Center
08:18AM 49.7333 -124.4667 144° Southeast 510 587 35,000  Level Vancouver Center
08:19AM 49.6167 -124.3667 151° Southeast 510 587 35,000  Level Vancouver Center
08:20AM 49.4833 -124.2333 147° Southeast 510 587 35,000  Level Vancouver Center
08:21AM 49.3667 -124.1333 151° Southeast 510 587 35,000  Level Vancouver Center
08:22AM 49.2500 -124.0000 143° Southeast 510 587 35,000  Level Vancouver Center
08:23AM 49.1333 -123.9000 151° Southeast 510 587 35,000  Level Vancouver Center
08:24AM 49.0167 -123.7667 143° Southeast 510 587 35,000  Level Vancouver Center
08:25AM 48.9000 -123.6667 151° Southeast 510 587 35,000 -180 Level Vancouver Center
08:26AM 48.7667 -123.5500 150° Southeast 510 587 34,700 -1,500 Descending Vancouver Center
08:27AM 48.6500 -123.4500 150° Southeast 510 587 32,000 -2,640 Descending Vancouver Center
08:28AM 48.5333 -123.3167 143° Southeast 500 575 29,500 -2,400 Descending Vancouver Center
08:29AM 48.4167 -123.2167 150° Southeast 480 552 27,200 -2,400 Descending Vancouver Center
08:30AM 48.3167 -123.1000 142° Southeast 470 541 24,700 -2,520 Descending Vancouver Center
08:31AM 48.2753 -123.0669 152° Southeast 467 537 23,600 -2,160 Descending Seattle Center
08:31AM 48.2072 -123.0008 147° Southeast 466 536 22,100 -2,280 Descending Seattle Center
08:32AM 48.1581 -122.9583 150° Southeast 457 526 21,100 -2,340 Descending Seattle Center
08:32AM 48.1019 -122.9039 147° Southeast 454 522 19,800 -2,040 Descending Seattle Center
08:33AM 47.9978 -122.8092 149° Southeast 445 512 17,700 -1,680 Descending Seattle Center
08:34AM 47.9022 -122.7269 150° Southeast 397 457 16,500 -1,500 Descending Seattle Center
08:35AM 47.8589 -122.6889 149° Southeast 376 433 15,700 -1,740 Descending Seattle Center
08:35AM 47.8150 -122.6469 147° Southeast 373 429 14,800 -1,920 Descending Seattle Center
08:36AM 47.7728 -122.6108 150° Southeast 365 420 13,800 -2,520 Descending Seattle Center
08:36AM 47.7158 -122.5583 148° Southeast 350 403 12,300 -2,100 Descending Seattle Center
08:37AM 47.6964 -122.5442 154° Southeast 347 399 11,900 -1,380 Descending Seattle Center
08:37AM 47.6361 -122.4886 148° Southeast 331 381 10,900 -1,200 Descending Seattle Center
08:38AM 47.6183 -122.4722 148° Southeast 329 379 10,700 -1,440 Descending Seattle Center
08:38AM 47.5569 -122.4583 171° South 301 346 9,500 -1,800 Descending Seattle Center
08:39AM 47.5375 -122.4606 184° South 286 329 8,900 -1,620 Descending Seattle Center
08:39AM 47.4747 -122.4611 180° South 297 342 7,900 -1,380 Descending Seattle Center
08:40AM 47.4494 -122.4631 183° South 292 336 7,500 -1,320 Descending Seattle Center
08:40AM 47.3969 -122.4617 179° South 284 327 6,600 -1,320 Descending Seattle Center
08:41AM 47.3744 -122.4650 186° South 275 316 6,200 -1,320 Descending Seattle Center
08:41AM 47.3217 -122.4644 180° South 273 314 5,300 -1,320 Descending Seattle Center
08:42AM 47.2992 -122.4667 184° South 270 311 4,900 -1,020 Descending Seattle Center
08:42AM 47.2492 -122.4658 179° South 263 303 4,300 -540 Descending Seattle Center
08:43AM 47.2181 -122.4014 125° Southeast 223 257 4,000 -540 Descending Seattle Center
08:44AM 47.2472 -122.3267 60° Northeast 223 257 3,300 -780 Descending Seattle Center
08:45AM 47.2994 -122.3089 13° North 197 227 2,500 -720 Descending Seattle Center
08:46AM 47.3472 -122.3083 360° North 176 203 1,900 -660 Descending Seattle Center
08:47AM 47.3886 -122.3083 360° North 154 177 1,200 -720 Descending Seattle Center
08:48AM 47.4267 -122.3081 360° North 139 160 500 -480 Descending Seattle Center
08:49AM 47.4581 -122.3083 360° North 139 160 300 -240 Descending Seattle Center
08:51AM 47.4499 -122.3118 180° South  Level Estimated